Time;durP1;ratioP1;P1;durP2;ratioP2;P2;SDS_P1;SDS_P2;PMS_P1;PMS_P2;Temp;Humidity;BMP_temperature;BMP_pressure;BME280_temperature;BME280_humidity;BME280_pressure;Samples;Min_cycle;Max_cycle;Signal;HPM_P1;HPM_P2
2023/03/30 00:01:20;;;;;;;13.93;7.27;;;;;;;;;;5049557;28;20411;-63
2023/03/30 00:03:47;;;;;;;12.93;7.73;;;;;;;;;;5049546;28;20048;-63
2023/03/30 00:06:20;;;;;;;13.57;8.17;;;;;;;;;;5049315;28;20052;-63
2023/03/30 00:08:47;;;;;;;12.80;7.70;;;;;;;;;;5048750;28;20080;-63
2023/03/30 00:11:14;;;;;;;13.50;7.50;;;;;;;;;;5049620;28;20048;-63
2023/03/30 00:13:41;;;;;;;15.17;7.67;;;;;;;;;;5049114;28;20045;-63
2023/03/30 00:16:08;;;;;;;9.90;6.67;;;;;;;;;;5048419;28;20075;-63
2023/03/30 00:18:35;;;;;;;12.77;6.83;;;;;;;;;;5049240;28;20479;-63
2023/03/30 00:21:01;;;;;;;15.63;7.20;;;;;;;;;;5048174;28;20049;-63
2023/03/30 00:23:28;;;;;;;14.73;7.00;;;;;;;;;;5049200;28;20036;-63
2023/03/30 00:25:55;;;;;;;12.83;7.07;;;;;;;;;;5049083;28;20041;-63
2023/03/30 00:28:21;;;;;;;10.23;6.00;;;;;;;;;;5048073;28;20803;-62
2023/03/30 00:30:48;;;;;;;13.70;7.67;;;;;;;;;;5048626;28;20041;-63
2023/03/30 00:33:15;;;;;;;16.07;7.67;;;;;;;;;;5048759;28;20055;-63
2023/03/30 00:35:41;;;;;;;12.20;6.93;;;;;;;;;;5049017;28;20782;-63
2023/03/30 00:38:07;;;;;;;14.47;7.83;;;;;;;;;;5048693;28;20044;-62
2023/03/30 00:40:33;;;;;;;10.63;6.53;;;;;;;;;;5049164;28;20043;-63
2023/03/30 00:43:00;;;;;;;10.97;6.40;;;;;;;;;;5047911;28;20131;-63
2023/03/30 00:45:30;;;;;;;13.13;6.70;;;;;;;;;;5048585;28;20049;-62
2023/03/30 00:47:56;;;;;;;11.90;6.37;;;;;;;;;;5049069;28;20132;-62
2023/03/30 00:50:24;;;;;;;11.60;6.57;;;;;;;;;;5048670;28;20086;-63
2023/03/30 00:52:52;;;;;;;15.00;5.90;;;;;;;;;;5047522;28;20044;-63
2023/03/30 00:55:20;;;;;;;9.87;6.13;;;;;;;;;;5048728;28;20038;-63
2023/03/30 00:57:47;;;;;;;11.10;6.47;;;;;;;;;;5047723;28;20045;-63
2023/03/30 01:00:13;;;;;;;9.03;5.60;;;;;;;;;;5048877;28;20068;-63
2023/03/30 01:02:47;;;;;;;8.93;5.53;;;;;;;;;;5047214;28;20049;-63
2023/03/30 01:05:13;;;;;;;;;;;;;;;;;;5048517;28;20525;-62
2023/03/30 01:07:40;;;;;;;10.93;6.07;;;;;;;;;;5046743;28;19925;-63
2023/03/30 01:10:07;;;;;;;13.97;5.37;;;;;;;;;;5048115;28;20049;-62
2023/03/30 01:12:33;;;;;;;13.13;7.17;;;;;;;;;;5048482;28;20041;-63
2023/03/30 01:15:00;;;;;;;16.03;7.87;;;;;;;;;;5048006;28;20052;-63
2023/03/30 01:17:35;;;;;;;14.20;8.03;;;;;;;;;;5048466;28;20431;-63
2023/03/30 01:20:08;;;;;;;17.60;7.57;;;;;;;;;;5048268;28;20049;-63
2023/03/30 01:22:52;;;;;;;12.77;7.47;;;;;;;;;;5048391;28;20056;-63
2023/03/30 01:25:58;;;;;;;15.53;7.13;;;;;;;;;;5047172;28;20053;-63
2023/03/30 01:28:33;;;;;;;14.53;7.70;;;;;;;;;;5009621;28;20466;-63
2023/03/30 01:31:26;;;;;;;16.00;8.17;;;;;;;;;;5025465;28;20060;-63
2023/03/30 01:34:01;;;;;;;13.97;8.83;;;;;;;;;;5030628;28;20060;-63
2023/03/30 01:36:45;;;;;;;19.77;9.70;;;;;;;;;;5052283;28;20515;-63
2023/03/30 01:39:11;;;;;;;16.30;8.10;;;;;;;;;;5052528;28;20053;-63
2023/03/30 01:41:46;;;;;;;19.07;8.33;;;;;;;;;;5050745;28;20052;-63
2023/03/30 01:44:31;;;;;;;13.67;7.30;;;;;;;;;;5051995;28;20053;-63
2023/03/30 01:47:04;;;;;;;12.40;7.83;;;;;;;;;;5050825;28;20059;-63
2023/03/30 01:49:51;;;;;;;12.07;8.18;;;;;;;;;;5051597;28;20740;-63
2023/03/30 01:52:30;;;;;;;11.50;7.30;;;;;;;;;;5051849;28;20060;-63
2023/03/30 01:55:25;;;;;;;15.13;6.97;;;;;;;;;;5051043;28;20103;-63
2023/03/30 01:57:56;;;;;;;16.47;6.43;;;;;;;;;;5029812;28;20108;-64
2023/03/30 02:00:23;;;;;;;15.03;7.07;;;;;;;;;;5032044;28;20049;-64
2023/03/30 02:03:15;;;;;;;10.20;5.60;;;;;;;;;;5031484;28;20103;-63
2023/03/30 02:05:42;;;;;;;13.67;7.03;;;;;;;;;;5030986;28;20078;-63
2023/03/30 02:08:13;;;;;;;16.00;7.37;;;;;;;;;;5031363;28;20053;-63
2023/03/30 02:10:41;;;;;;;10.53;5.27;;;;;;;;;;5050537;28;20048;-63
2023/03/30 02:13:07;;;;;;;13.17;5.30;;;;;;;;;;5051415;28;20132;-63
2023/03/30 02:15:36;;;;;;;14.17;6.73;;;;;;;;;;5051149;28;20076;-63
2023/03/30 02:18:03;;;;;;;12.70;5.57;;;;;;;;;;5051200;28;20419;-63
2023/03/30 02:20:30;;;;;;;9.63;4.90;;;;;;;;;;5050927;28;20052;-63
2023/03/30 02:22:56;;;;;;;10.53;5.00;;;;;;;;;;5051395;28;20041;-63
2023/03/30 02:25:22;;;;;;;10.37;5.20;;;;;;;;;;5051574;28;20067;-63
2023/03/30 02:27:48;;;;;;;12.13;3.93;;;;;;;;;;5050573;28;20061;-63
2023/03/30 02:30:15;;;;;;;12.67;3.90;;;;;;;;;;5051406;28;20126;-63
2023/03/30 02:32:45;;;;;;;10.50;3.83;;;;;;;;;;5051022;28;20041;-63
2023/03/30 02:35:23;;;;;;;8.27;3.47;;;;;;;;;;5050257;28;20140;-63
2023/03/30 02:38:08;;;;;;;9.33;3.40;;;;;;;;;;5051151;28;20045;-63
2023/03/30 02:40:34;;;;;;;14.27;3.73;;;;;;;;;;5049754;28;20053;-63
2023/03/30 02:43:19;;;;;;;9.30;3.40;;;;;;;;;;5050507;28;20499;-63
2023/03/30 02:45:51;;;;;;;6.17;3.33;;;;;;;;;;5049306;28;20086;-63
2023/03/30 02:48:20;;;;;;;6.93;2.90;;;;;;;;;;5050996;28;20049;-63
2023/03/30 02:50:50;;;;;;;7.40;3.33;;;;;;;;;;5050873;28;20056;-63
2023/03/30 02:53:34;;;;;;;7.10;3.23;;;;;;;;;;5050645;28;20383;-63
2023/03/30 02:56:02;;;;;;;8.00;3.53;;;;;;;;;;5049185;28;20045;-63
2023/03/30 02:58:47;;;;;;;5.23;3.30;;;;;;;;;;5049555;28;20059;-62
2023/03/30 03:01:13;;;;;;;9.97;3.77;;;;;;;;;;5050549;28;20052;-63
2023/03/30 03:03:43;;;;;;;7.00;3.63;;;;;;;;;;5050696;28;20147;-62
2023/03/30 03:06:10;;;;;;;8.13;3.30;;;;;;;;;;5050855;28;20049;-63
2023/03/30 03:08:38;;;;;;;11.77;4.00;;;;;;;;;;5050485;28;20087;-63
2023/03/30 03:11:05;;;;;;;8.13;3.27;;;;;;;;;;5050465;28;20131;-63
2023/03/30 03:13:32;;;;;;;11.37;3.77;;;;;;;;;;5050499;28;20503;-63
2023/03/30 03:16:00;;;;;;;10.97;3.10;;;;;;;;;;5050154;28;20048;-63
2023/03/30 03:18:26;;;;;;;8.97;2.73;;;;;;;;;;5049383;28;20328;-63
2023/03/30 03:20:52;;;;;;;9.43;3.43;;;;;;;;;;5050150;28;20682;-63
2023/03/30 03:23:18;;;;;;;11.00;3.80;;;;;;;;;;5050591;28;20053;-62
2023/03/30 03:25:44;;;;;;;7.50;3.17;;;;;;;;;;5049979;28;20041;-63
2023/03/30 03:28:10;;;;;;;7.67;3.37;;;;;;;;;;5049252;28;20057;-63
2023/03/30 03:30:36;;;;;;;9.53;4.00;;;;;;;;;;5049573;28;20189;-63
2023/03/30 03:33:02;;;;;;;9.97;3.13;;;;;;;;;;5049721;28;20053;-63
2023/03/30 03:35:28;;;;;;;8.00;3.43;;;;;;;;;;5048660;28;20427;-63
2023/03/30 03:37:55;;;;;;;11.17;3.30;;;;;;;;;;5048982;28;20045;-62
2023/03/30 03:40:21;;;;;;;9.27;3.17;;;;;;;;;;5049776;28;20049;-63
2023/03/30 03:42:47;;;;;;;8.43;2.33;;;;;;;;;;5049630;28;20045;-63
2023/03/30 03:45:13;;;;;;;8.03;2.77;;;;;;;;;;5049751;28;20041;-63
2023/03/30 03:47:39;;;;;;;9.60;2.80;;;;;;;;;;5049525;28;20098;-63
2023/03/30 03:50:08;;;;;;;5.80;2.60;;;;;;;;;;5048849;28;20063;-62
2023/03/30 03:52:37;;;;;;;6.40;2.90;;;;;;;;;;5049453;28;20049;-62
2023/03/30 03:55:04;;;;;;;9.63;3.33;;;;;;;;;;5048574;28;20087;-62
2023/03/30 03:57:30;;;;;;;7.80;3.40;;;;;;;;;;5049580;28;20067;-63
2023/03/30 03:59:58;;;;;;;9.77;2.83;;;;;;;;;;5049095;28;20047;-62
2023/03/30 04:02:25;;;;;;;8.63;2.97;;;;;;;;;;5049277;28;20076;-63
2023/03/30 04:04:52;;;;;;;8.23;3.00;;;;;;;;;;5047933;28;20461;-62
2023/03/30 04:07:18;;;;;;;9.30;3.43;;;;;;;;;;5048837;28;20102;-62
2023/03/30 04:09:45;;;;;;;10.93;3.17;;;;;;;;;;5049532;28;20072;-62
2023/03/30 04:12:11;;;;;;;9.73;3.10;;;;;;;;;;5049728;28;20364;-63
2023/03/30 04:14:37;;;;;;;16.83;4.23;;;;;;;;;;5049287;28;20049;-63
2023/03/30 04:17:05;;;;;;;12.37;3.77;;;;;;;;;;5049348;28;20060;-63
2023/03/30 04:19:31;;;;;;;10.10;3.80;;;;;;;;;;5048969;28;20144;-64
2023/03/30 04:21:57;;;;;;;6.70;3.40;;;;;;;;;;5049020;28;20045;-63
2023/03/30 04:24:26;;;;;;;10.40;4.27;;;;;;;;;;5048503;28;20056;-63
2023/03/30 04:26:52;;;;;;;14.27;4.67;;;;;;;;;;5047812;28;20222;-63
2023/03/30 04:29:19;;;;;;;10.20;4.40;;;;;;;;;;5049013;28;20049;-63
2023/03/30 04:31:45;;;;;;;9.60;4.20;;;;;;;;;;5042432;28;20123;-63
2023/03/30 04:34:14;;;;;;;10.40;4.00;;;;;;;;;;5048290;28;20380;-63
2023/03/30 04:36:42;;;;;;;9.27;3.53;;;;;;;;;;5048817;28;20111;-63
2023/03/30 04:39:10;;;;;;;6.27;3.90;;;;;;;;;;5046009;28;20457;-63
2023/03/30 04:41:36;;;;;;;13.10;4.00;;;;;;;;;;5048422;28;20476;-63
2023/03/30 04:44:07;;;;;;;12.03;3.80;;;;;;;;;;5048314;28;20265;-63
2023/03/30 04:46:34;;;;;;;6.03;3.33;;;;;;;;;;5048947;28;20044;-63
2023/03/30 04:49:00;;;;;;;10.57;3.83;;;;;;;;;;5048426;28;20052;-63
2023/03/30 04:51:26;;;;;;;10.97;4.23;;;;;;;;;;5048026;28;20047;-63
2023/03/30 04:53:52;;;;;;;6.20;3.53;;;;;;;;;;5048794;28;20045;-63
2023/03/30 04:56:18;;;;;;;10.80;3.10;;;;;;;;;;5047698;28;21129;-63
2023/03/30 04:58:44;;;;;;;15.50;3.40;;;;;;;;;;5048478;28;20132;-63
2023/03/30 05:01:10;;;;;;;8.07;3.27;;;;;;;;;;5047940;28;20039;-63
2023/03/30 05:03:36;;;;;;;8.10;3.17;;;;;;;;;;5048359;28;20110;-63
2023/03/30 05:06:03;;;;;;;8.70;3.37;;;;;;;;;;5048477;28;20044;-63
2023/03/30 05:08:29;;;;;;;10.43;3.40;;;;;;;;;;5052190;28;20053;-63
2023/03/30 05:10:59;;;;;;;9.67;3.23;;;;;;;;;;5052589;28;20045;-63
2023/03/30 05:13:25;;;;;;;8.20;3.10;;;;;;;;;;5052533;28;20499;-63
2023/03/30 05:15:55;;;;;;;8.87;3.37;;;;;;;;;;5050767;28;20051;-63
2023/03/30 05:18:21;;;;;;;12.90;4.33;;;;;;;;;;5052088;28;20503;-63
2023/03/30 05:20:47;;;;;;;9.20;4.03;;;;;;;;;;5050479;28;20040;-63
2023/03/30 05:23:13;;;;;;;12.00;3.13;;;;;;;;;;5051050;28;20044;-63
2023/03/30 05:25:45;;;;;;;10.97;3.03;;;;;;;;;;5050366;28;20041;-63
2023/03/30 05:28:11;;;;;;;6.27;2.67;;;;;;;;;;5051001;28;20061;-62
2023/03/30 05:30:37;;;;;;;5.83;2.77;;;;;;;;;;5052811;28;20056;-63
2023/03/30 05:33:04;;;;;;;8.00;3.17;;;;;;;;;;5052531;28;20045;-63
2023/03/30 05:35:30;;;;;;;7.83;3.47;;;;;;;;;;5051751;28;20048;-62
2023/03/30 05:37:57;;;;;;;8.53;2.63;;;;;;;;;;5052017;28;20127;-63
2023/03/30 05:40:23;;;;;;;7.27;3.03;;;;;;;;;;5051472;28;20059;-63
2023/03/30 05:42:49;;;;;;;7.33;2.63;;;;;;;;;;5052370;28;20089;-63
2023/03/30 05:45:15;;;;;;;7.30;2.77;;;;;;;;;;5052778;28;20067;-63
2023/03/30 05:47:41;;;;;;;8.40;2.63;;;;;;;;;;5050934;28;20570;-63
2023/03/30 05:50:08;;;;;;;9.50;2.97;;;;;;;;;;5050886;28;20415;-63
2023/03/30 05:52:34;;;;;;;7.10;2.77;;;;;;;;;;5051257;28;20084;-63
2023/03/30 05:55:00;;;;;;;7.27;3.00;;;;;;;;;;5049968;28;20048;-63
2023/03/30 05:57:26;;;;;;;13.07;3.23;;;;;;;;;;5050884;28;20654;-63
2023/03/30 05:59:53;;;;;;;11.43;2.97;;;;;;;;;;5050729;28;20051;-62
2023/03/30 06:02:19;;;;;;;9.13;3.17;;;;;;;;;;5051152;28;20053;-63
2023/03/30 06:04:46;;;;;;;7.60;2.77;;;;;;;;;;5051562;28;20041;-63
2023/03/30 06:07:12;;;;;;;8.97;3.00;;;;;;;;;;5049141;28;20048;-62
2023/03/30 06:09:38;;;;;;;9.33;2.87;;;;;;;;;;5051434;28;20056;-62
2023/03/30 06:12:04;;;;;;;8.90;2.93;;;;;;;;;;5050072;28;20041;-63
2023/03/30 06:14:30;;;;;;;8.30;2.70;;;;;;;;;;5051773;28;20043;-63
2023/03/30 06:16:57;;;;;;;14.93;2.83;;;;;;;;;;5050865;28;20049;-63
2023/03/30 06:19:23;;;;;;;8.97;2.37;;;;;;;;;;5049817;28;20163;-62
2023/03/30 06:21:49;;;;;;;8.87;2.63;;;;;;;;;;5051133;28;20403;-62
2023/03/30 06:24:15;;;;;;;16.27;2.47;;;;;;;;;;5049723;28;20072;-63
2023/03/30 06:26:41;;;;;;;9.43;2.50;;;;;;;;;;5050291;28;20503;-62
2023/03/30 06:29:07;;;;;;;8.60;1.87;;;;;;;;;;5050095;28;20568;-62
2023/03/30 06:31:33;;;;;;;11.37;2.97;;;;;;;;;;5050939;28;20132;-62
2023/03/30 06:33:59;;;;;;;13.53;2.80;;;;;;;;;;5050734;28;20521;-64
2023/03/30 06:36:26;;;;;;;10.37;2.83;;;;;;;;;;5051241;28;20449;-63
2023/03/30 06:38:52;;;;;;;6.40;2.60;;;;;;;;;;5050151;28;20048;-64
2023/03/30 06:41:18;;;;;;;10.70;2.90;;;;;;;;;;5051350;28;20094;-62
2023/03/30 06:43:44;;;;;;;10.03;2.83;;;;;;;;;;5051011;28;20070;-63
2023/03/30 06:46:11;;;;;;;15.50;3.50;;;;;;;;;;5048837;28;20049;-63
2023/03/30 06:48:37;;;;;;;11.23;2.73;;;;;;;;;;5050979;28;20090;-64
2023/03/30 06:51:04;;;;;;;8.93;2.40;;;;;;;;;;5050534;28;20470;-62
2023/03/30 06:53:30;;;;;;;13.70;3.20;;;;;;;;;;5049002;28;20085;-63
2023/03/30 06:55:57;;;;;;;24.57;3.77;;;;;;;;;;5051093;28;20402;-63
2023/03/30 06:58:24;;;;;;;14.63;3.30;;;;;;;;;;5050528;28;20152;-63
2023/03/30 07:00:50;;;;;;;11.50;2.90;;;;;;;;;;5050414;28;20120;-64
2023/03/30 07:03:19;;;;;;;12.00;3.03;;;;;;;;;;5050857;28;20048;-63
2023/03/30 07:05:49;;;;;;;14.50;3.57;;;;;;;;;;5049874;28;20048;-64
2023/03/30 07:08:15;;;;;;;10.23;3.53;;;;;;;;;;5050317;28;20079;-63
2023/03/30 07:10:42;;;;;;;19.10;3.40;;;;;;;;;;5050395;28;20052;-63
2023/03/30 07:13:08;;;;;;;14.97;3.37;;;;;;;;;;5045569;28;20072;-64
2023/03/30 07:15:34;;;;;;;15.23;3.53;;;;;;;;;;5033386;28;20088;-62
2023/03/30 07:18:01;;;;;;;13.23;3.47;;;;;;;;;;5048822;28;20106;-66
2023/03/30 07:20:27;;;;;;;16.13;3.20;;;;;;;;;;5032808;28;20446;-63
2023/03/30 07:22:53;;;;;;;13.53;3.13;;;;;;;;;;5049443;28;20127;-64
2023/03/30 07:25:19;;;;;;;16.23;3.60;;;;;;;;;;5050029;28;20920;-64
2023/03/30 07:27:46;;;;;;;11.60;3.60;;;;;;;;;;5049729;28;20147;-64
2023/03/30 07:30:13;;;;;;;16.00;4.00;;;;;;;;;;5049913;28;20049;-63
2023/03/30 07:32:39;;;;;;;21.40;3.53;;;;;;;;;;5049925;28;20044;-63
2023/03/30 07:35:07;;;;;;;21.63;4.20;;;;;;;;;;5050396;28;20052;-65
2023/03/30 07:37:34;;;;;;;12.87;2.80;;;;;;;;;;5051749;28;20499;-64
2023/03/30 07:40:00;;;;;;;20.53;4.47;;;;;;;;;;5045187;28;20080;-64
2023/03/30 07:42:26;;;;;;;26.93;5.13;;;;;;;;;;5031024;28;20084;-64
2023/03/30 07:44:52;;;;;;;15.03;3.33;;;;;;;;;;5030736;28;20140;-63
2023/03/30 07:47:18;;;;;;;21.63;5.80;;;;;;;;;;5030175;28;20052;-64
2023/03/30 07:49:44;;;;;;;17.40;4.27;;;;;;;;;;5044352;28;20052;-64
2023/03/30 07:52:11;;;;;;;18.20;4.40;;;;;;;;;;5050477;28;20519;-64
2023/03/30 07:54:37;;;;;;;19.07;3.93;;;;;;;;;;5049698;28;20119;-64
2023/03/30 07:57:03;;;;;;;25.90;4.27;;;;;;;;;;5050104;28;20064;-64
2023/03/30 07:59:30;;;;;;;28.60;5.50;;;;;;;;;;5050639;28;20079;-65
2023/03/30 08:01:56;;;;;;;19.33;4.10;;;;;;;;;;5050309;28;20840;-64
2023/03/30 08:04:24;;;;;;;20.70;4.07;;;;;;;;;;5050500;28;20107;-64
2023/03/30 08:06:51;;;;;;;21.73;5.13;;;;;;;;;;5048574;28;20107;-64
2023/03/30 08:09:17;;;;;;;20.53;4.70;;;;;;;;;;5050215;28;20403;-64
2023/03/30 08:11:44;;;;;;;22.63;4.17;;;;;;;;;;5050592;28;20106;-64
2023/03/30 08:14:10;;;;;;;19.67;5.70;;;;;;;;;;5050024;28;20060;-64
2023/03/30 08:16:36;;;;;;;20.90;4.53;;;;;;;;;;5050833;28;20545;-64
2023/03/30 08:19:02;;;;;;;26.57;5.70;;;;;;;;;;5050045;28;20044;-64
2023/03/30 08:21:28;;;;;;;22.10;4.40;;;;;;;;;;5050525;28;20037;-63
2023/03/30 08:23:57;;;;;;;26.17;6.33;;;;;;;;;;5050092;28;20072;-64
2023/03/30 08:26:23;;;;;;;32.00;6.17;;;;;;;;;;5049695;28;20080;-63
2023/03/30 08:28:50;;;;;;;26.20;5.60;;;;;;;;;;5050095;28;20877;-64
2023/03/30 08:31:17;;;;;;;33.63;7.17;;;;;;;;;;5049459;28;20368;-64
2023/03/30 08:33:43;;;;;;;31.10;6.57;;;;;;;;;;5050264;28;20053;-64
2023/03/30 08:36:11;;;;;;;34.37;5.90;;;;;;;;;;5049792;28;20084;-66
2023/03/30 08:38:38;;;;;;;39.30;7.70;;;;;;;;;;5050295;28;20052;-65
2023/03/30 08:41:24;;;;;;;27.77;6.97;;;;;;;;;;5048275;28;20117;-66
2023/03/30 08:43:57;;;;;;;32.53;8.10;;;;;;;;;;5038835;28;20040;-65
2023/03/30 08:46:24;;;;;;;30.03;7.63;;;;;;;;;;5049850;28;20044;-65
2023/03/30 08:48:52;;;;;;;35.57;7.10;;;;;;;;;;5049489;28;20114;-65
2023/03/30 08:51:27;;;;;;;34.00;6.93;;;;;;;;;;5050022;28;20051;-65
2023/03/30 08:53:56;;;;;;;30.83;6.27;;;;;;;;;;5049774;28;20060;-65
2023/03/30 08:56:25;;;;;;;32.80;5.73;;;;;;;;;;5048550;28;20384;-65
2023/03/30 08:59:10;;;;;;;27.70;5.50;;;;;;;;;;5049454;28;20067;-65
2023/03/30 09:01:53;;;;;;;29.53;5.07;;;;;;;;;;5047671;28;20045;-65
2023/03/30 09:04:26;;;;;;;22.63;5.40;;;;;;;;;;5049554;28;20041;-65
2023/03/30 09:06:53;;;;;;;29.87;6.90;;;;;;;;;;5048718;28;20053;-66
2023/03/30 09:09:21;;;;;;;26.10;5.90;;;;;;;;;;5043010;28;20455;-65
2023/03/30 09:11:49;;;;;;;24.77;4.93;;;;;;;;;;5037370;28;20415;-65
2023/03/30 09:14:22;;;;;;;21.73;5.90;;;;;;;;;;5038519;28;20087;-65
2023/03/30 09:16:51;;;;;;;23.83;4.78;;;;;;;;;;5036154;28;20049;-65
2023/03/30 09:19:23;;;;;;;22.60;4.77;;;;;;;;;;5038483;28;20825;-65
2023/03/30 09:21:50;;;;;;;19.37;5.03;;;;;;;;;;5040221;28;20048;-64
2023/03/30 09:24:20;;;;;;;19.13;3.90;;;;;;;;;;5039624;28;20050;-64
2023/03/30 09:26:56;;;;;;;23.97;4.97;;;;;;;;;;5037049;28;20094;-64
2023/03/30 09:29:33;;;;;;;23.47;4.23;;;;;;;;;;5038274;28;20029;-64
2023/03/30 09:31:59;;;;;;;18.83;4.47;;;;;;;;;;5040825;28;20112;-64
2023/03/30 09:34:38;;;;;;;23.53;3.73;;;;;;;;;;5037738;28;20403;-64
2023/03/30 09:37:05;;;;;;;23.07;4.07;;;;;;;;;;5038745;28;20561;-64
2023/03/30 09:39:34;;;;;;;21.57;4.50;;;;;;;;;;5038852;28;20072;-64
2023/03/30 09:42:18;;;;;;;30.13;5.73;;;;;;;;;;5052601;28;20532;-64
2023/03/30 09:45:04;;;;;;;22.63;4.50;;;;;;;;;;5029449;28;20049;-64
2023/03/30 09:47:37;;;;;;;21.47;4.10;;;;;;;;;;5028259;28;20103;-64
2023/03/30 09:50:03;;;;;;;;;;;;;;;;;;5029515;28;20057;-64
2023/03/30 09:52:35;;;;;;;16.33;4.27;;;;;;;;;;5028888;28;19975;-64
2023/03/30 09:55:20;;;;;;;18.43;4.30;;;;;;;;;;5032810;28;20096;-64
2023/03/30 09:57:46;;;;;;;23.90;4.87;;;;;;;;;;5032895;28;20046;-64
2023/03/30 10:00:25;;;;;;;15.40;3.97;;;;;;;;;;5051595;28;20079;-64
2023/03/30 10:02:58;;;;;;;24.13;4.37;;;;;;;;;;5044578;28;20048;-64
2023/03/30 10:05:25;;;;;;;18.53;3.37;;;;;;;;;;5044983;28;20547;-64
2023/03/30 10:07:58;;;;;;;15.97;4.00;;;;;;;;;;5050907;28;20045;-65
2023/03/30 10:10:37;;;;;;;11.73;2.60;;;;;;;;;;5052541;28;20053;-64
2023/03/30 10:13:03;;;;;;;10.63;3.00;;;;;;;;;;5051898;28;20134;-64
2023/03/30 10:15:30;;;;;;;20.00;3.70;;;;;;;;;;5051972;28;20048;-64
2023/03/30 10:18:00;;;;;;;16.63;3.73;;;;;;;;;;5051594;28;20064;-63
2023/03/30 10:20:28;;;;;;;13.87;4.07;;;;;;;;;;5052264;28;20053;-64
2023/03/30 10:22:56;;;;;;;15.33;3.30;;;;;;;;;;5051983;28;20384;-64
2023/03/30 10:25:23;;;;;;;19.13;3.33;;;;;;;;;;5050729;28;20548;-64
2023/03/30 10:27:52;;;;;;;18.83;3.97;;;;;;;;;;5050466;28;20128;-64
2023/03/30 10:30:20;;;;;;;12.33;3.33;;;;;;;;;;5051470;28;20052;-64
2023/03/30 10:32:46;;;;;;;14.53;2.90;;;;;;;;;;5050370;28;20055;-64
2023/03/30 10:35:17;;;;;;;16.90;3.17;;;;;;;;;;5050957;28;20053;-64
2023/03/30 10:37:47;;;;;;;15.27;3.60;;;;;;;;;;5050902;28;20057;-64
2023/03/30 10:40:16;;;;;;;16.37;2.60;;;;;;;;;;5049868;28;20056;-64
2023/03/30 10:42:43;;;;;;;15.23;3.70;;;;;;;;;;5050854;28;20510;-64
2023/03/30 10:45:18;;;;;;;17.40;4.10;;;;;;;;;;5049793;28;20056;-63
2023/03/30 10:48:00;;;;;;;14.70;2.97;;;;;;;;;;5049962;28;20048;-64
2023/03/30 10:50:31;;;;;;;11.87;3.50;;;;;;;;;;5045569;28;20440;-64
2023/03/30 10:53:06;;;;;;;13.33;2.70;;;;;;;;;;5049683;28;20132;-64
2023/03/30 10:55:44;;;;;;;13.53;3.80;;;;;;;;;;5031624;28;20407;-64
2023/03/30 10:58:27;;;;;;;12.13;3.10;;;;;;;;;;5042561;28;20053;-62
2023/03/30 11:01:07;;;;;;;18.88;3.13;;;;;;;;;;5040469;28;20068;-62
2023/03/30 11:03:35;;;;;;;17.70;3.30;;;;;;;;;;5042501;28;20060;-62
2023/03/30 11:06:05;;;;;;;13.00;2.87;;;;;;;;;;5039977;28;20045;-61
2023/03/30 11:08:39;;;;;;;13.53;3.93;;;;;;;;;;5035778;28;20543;-61
2023/03/30 11:11:05;;;;;;;12.73;2.90;;;;;;;;;;5032350;28;20046;-61
2023/03/30 11:13:37;;;;;;;16.67;3.00;;;;;;;;;;5042797;28;20392;-61
2023/03/30 11:16:10;;;;;;;11.27;2.40;;;;;;;;;;5047385;28;20576;-61
2023/03/30 11:18:43;;;;;;;15.70;3.30;;;;;;;;;;5051062;28;20048;-61
2023/03/30 11:21:17;;;;;;;15.75;3.13;;;;;;;;;;5051460;28;20051;-61
2023/03/30 11:24:06;;;;;;;15.07;3.77;;;;;;;;;;5041838;28;20117;-61
2023/03/30 11:26:32;;;;;;;22.07;3.83;;;;;;;;;;5041269;28;20047;-61
2023/03/30 11:29:18;;;;;;;19.77;4.30;;;;;;;;;;5040010;28;20515;-62
2023/03/30 11:31:50;;;;;;;15.40;3.20;;;;;;;;;;5045492;28;20360;-61
2023/03/30 11:34:27;;;;;;;15.00;3.73;;;;;;;;;;5040291;28;20040;-60
2023/03/30 11:37:03;;;;;;;19.67;3.90;;;;;;;;;;5040205;28;20427;-61
2023/03/30 11:39:30;;;;;;;14.00;3.53;;;;;;;;;;5040607;28;20048;-61
2023/03/30 11:42:17;;;;;;;15.90;3.63;;;;;;;;;;5040412;28;20041;-61
2023/03/30 11:44:43;;;;;;;19.17;3.63;;;;;;;;;;5039087;28;20065;-61
2023/03/30 11:47:11;;;;;;;19.17;4.00;;;;;;;;;;5038966;28;20581;-61
2023/03/30 11:49:40;;;;;;;20.20;3.77;;;;;;;;;;5037519;28;20057;-61
2023/03/30 11:52:12;;;;;;;15.17;3.43;;;;;;;;;;5038386;28;20056;-61
2023/03/30 11:54:46;;;;;;;17.50;3.97;;;;;;;;;;5036800;28;20084;-61
2023/03/30 11:57:32;;;;;;;19.37;3.90;;;;;;;;;;5029282;28;20128;-61
2023/03/30 12:00:21;;;;;;;21.77;4.17;;;;;;;;;;5038838;28;20415;-61
2023/03/30 12:02:47;;;;;;;21.40;4.17;;;;;;;;;;5038791;28;20515;-61
2023/03/30 12:05:21;;;;;;;16.03;4.03;;;;;;;;;;5039325;28;20069;-61
2023/03/30 12:08:00;;;;;;;19.30;4.47;;;;;;;;;;5044272;28;20518;-61
2023/03/30 12:10:33;;;;;;;18.77;3.97;;;;;;;;;;5039774;28;20051;-61
2023/03/30 12:13:00;;;;;;;19.27;4.57;;;;;;;;;;5037647;28;20140;-61
2023/03/30 12:15:27;;;;;;;19.13;3.97;;;;;;;;;;5030492;28;20053;-61
2023/03/30 12:17:56;;;;;;;17.00;4.43;;;;;;;;;;5041012;28;20685;-61
2023/03/30 12:20:28;;;;;;;21.00;3.97;;;;;;;;;;5035680;28;20080;-61
2023/03/30 12:23:04;;;;;;;20.03;4.57;;;;;;;;;;5033168;28;20196;-62
2023/03/30 12:25:50;;;;;;;17.03;4.00;;;;;;;;;;5041994;28;20036;-62
2023/03/30 12:28:19;;;;;;;14.93;3.73;;;;;;;;;;5042753;28;20057;-61
2023/03/30 12:30:53;;;;;;;19.27;4.93;;;;;;;;;;5039197;28;20050;-61
2023/03/30 12:33:27;;;;;;;19.37;4.70;;;;;;;;;;5036740;28;20512;-61
2023/03/30 12:35:54;;;;;;;20.07;3.90;;;;;;;;;;5037373;28;20045;-61
2023/03/30 12:38:24;;;;;;;16.67;4.30;;;;;;;;;;5036895;28;20068;-61
2023/03/30 12:41:14;;;;;;;18.23;4.83;;;;;;;;;;5037304;28;20073;-61
2023/03/30 12:43:46;;;;;;;17.57;4.10;;;;;;;;;;5038815;28;20057;-61
2023/03/30 12:46:24;;;;;;;18.52;4.72;;;;;;;;;;5037493;28;20494;-62
2023/03/30 12:48:53;;;;;;;15.90;4.63;;;;;;;;;;5039350;28;20439;-61
2023/03/30 12:51:19;;;;;;;15.67;4.27;;;;;;;;;;5039011;28;20056;-61
2023/03/30 12:54:00;;;;;;;20.43;5.30;;;;;;;;;;5039329;28;20044;-62
2023/03/30 12:56:45;;;;;;;22.10;5.27;;;;;;;;;;5039150;28;20667;-62
2023/03/30 12:59:29;;;;;;;17.27;4.00;;;;;;;;;;5039113;28;20045;-61
2023/03/30 13:01:56;;;;;;;19.80;4.73;;;;;;;;;;5040503;28;20487;-61
2023/03/30 13:04:23;;;;;;;18.43;4.13;;;;;;;;;;5035217;28;20050;-61
2023/03/30 13:06:52;;;;;;;15.87;4.23;;;;;;;;;;5037959;28;20096;-62
2023/03/30 13:09:22;;;;;;;15.67;4.57;;;;;;;;;;5036407;28;20120;-62
2023/03/30 13:11:48;;;;;;;19.50;4.20;;;;;;;;;;5038774;28;20036;-62
2023/03/30 13:14:27;;;;;;;17.67;4.37;;;;;;;;;;5039513;28;20396;-62
2023/03/30 13:16:53;;;;;;;18.03;5.47;;;;;;;;;;5040029;28;20045;-62
2023/03/30 13:19:22;;;;;;;23.40;5.67;;;;;;;;;;5035237;28;20143;-62
2023/03/30 13:21:54;;;;;;;21.63;6.07;;;;;;;;;;5037252;28;20053;-62
2023/03/30 13:24:23;;;;;;;23.53;5.50;;;;;;;;;;5039239;28;20044;-62
2023/03/30 13:26:50;;;;;;;17.33;4.40;;;;;;;;;;5044545;28;20083;-62
2023/03/30 13:29:17;;;;;;;19.60;5.07;;;;;;;;;;5051459;28;20053;-62
2023/03/30 13:32:04;;;;;;;22.80;5.40;;;;;;;;;;5050892;28;20491;-62
2023/03/30 13:34:31;;;;;;;24.77;5.27;;;;;;;;;;5051748;28;20775;-63
2023/03/30 13:37:05;;;;;;;20.27;4.57;;;;;;;;;;5047355;28;20048;-61
2023/03/30 13:39:38;;;;;;;18.53;4.83;;;;;;;;;;5050667;28;20057;-61
2023/03/30 13:42:11;;;;;;;21.20;4.20;;;;;;;;;;5051993;28;20051;-61
2023/03/30 13:44:45;;;;;;;27.80;6.18;;;;;;;;;;5051078;28;20037;-61
2023/03/30 13:47:26;;;;;;;20.70;5.33;;;;;;;;;;5046100;28;20053;-61
2023/03/30 13:49:52;;;;;;;26.10;5.43;;;;;;;;;;5041525;28;20514;-61
2023/03/30 13:52:24;;;;;;;18.87;4.33;;;;;;;;;;5042838;28;20037;-61
2023/03/30 13:54:50;;;;;;;17.83;4.37;;;;;;;;;;5051928;28;20045;-62
2023/03/30 13:57:18;;;;;;;17.57;3.77;;;;;;;;;;5042229;28;20037;-61
2023/03/30 13:59:46;;;;;;;19.00;4.00;;;;;;;;;;5044078;28;20134;-62
2023/03/30 14:02:15;;;;;;;16.67;4.50;;;;;;;;;;5036816;28;20100;-62
2023/03/30 14:04:43;;;;;;;21.20;5.60;;;;;;;;;;5042124;28;20053;-62
2023/03/30 14:07:17;;;;;;;13.87;3.70;;;;;;;;;;5037040;28;20041;-62
2023/03/30 14:09:44;;;;;;;19.37;5.77;;;;;;;;;;5038053;28;20045;-63
2023/03/30 14:12:12;;;;;;;23.60;6.47;;;;;;;;;;5034390;28;20380;-62
2023/03/30 14:14:44;;;;;;;19.63;4.63;;;;;;;;;;5036378;28;20087;-62
2023/03/30 14:17:21;;;;;;;16.67;4.47;;;;;;;;;;5038940;28;20487;-63
2023/03/30 14:19:57;;;;;;;21.53;4.53;;;;;;;;;;5038840;28;20049;-61
2023/03/30 14:22:26;;;;;;;24.70;4.80;;;;;;;;;;5038110;28;20550;-61
2023/03/30 14:24:57;;;;;;;20.57;4.60;;;;;;;;;;5040530;28;20056;-62
2023/03/30 14:27:23;;;;;;;19.63;4.27;;;;;;;;;;5039134;28;20115;-63
2023/03/30 14:29:50;;;;;;;19.10;5.30;;;;;;;;;;5037891;28;20094;-63
2023/03/30 14:32:19;;;;;;;17.70;4.67;;;;;;;;;;5042523;28;20053;-62
2023/03/30 14:34:49;;;;;;;21.97;4.60;;;;;;;;;;5040381;28;20053;-62
2023/03/30 14:37:15;;;;;;;14.30;3.90;;;;;;;;;;5039679;28;20049;-63
2023/03/30 14:39:44;;;;;;;18.77;4.70;;;;;;;;;;5037063;28;20115;-62
2023/03/30 14:42:16;;;;;;;14.47;3.80;;;;;;;;;;5036805;28;20053;-62
2023/03/30 14:44:43;;;;;;;19.57;4.93;;;;;;;;;;5038570;28;20131;-62
2023/03/30 14:47:10;;;;;;;22.30;4.60;;;;;;;;;;5036930;28;20037;-62
2023/03/30 14:49:36;;;;;;;19.80;4.80;;;;;;;;;;5036411;28;20573;-62